sensor_id;sensor_type;location;lat;lon;timestamp;P1;durP1;ratioP1;P2;durP2;ratioP2
56363;SDS011;42261;52.094;4.326;2023-05-16T00:01:36;7.28;;;1.10;;
56363;SDS011;42261;52.094;4.326;2023-05-16T00:04:21;7.70;;;1.20;;
56363;SDS011;42261;52.094;4.326;2023-05-16T00:07:06;5.88;;;0.98;;
56363;SDS011;42261;52.094;4.326;2023-05-16T00:09:51;14.75;;;1.10;;
56363;SDS011;42261;52.094;4.326;2023-05-16T00:12:35;7.15;;;1.55;;
56363;SDS011;42261;52.094;4.326;2023-05-16T00:15:20;3.05;;;1.00;;
56363;SDS011;42261;52.094;4.326;2023-05-16T00:18:06;9.15;;;1.20;;
56363;SDS011;42261;52.094;4.326;2023-05-16T00:20:50;4.72;;;0.95;;
56363;SDS011;42261;52.094;4.326;2023-05-16T00:23:36;8.73;;;0.95;;
56363;SDS011;42261;52.094;4.326;2023-05-16T00:26:20;6.63;;;0.80;;
56363;SDS011;42261;52.094;4.326;2023-05-16T00:29:04;6.60;;;1.15;;
56363;SDS011;42261;52.094;4.326;2023-05-16T00:31:48;12.60;;;1.27;;
56363;SDS011;42261;52.094;4.326;2023-05-16T00:34:32;8.52;;;1.10;;
56363;SDS011;42261;52.094;4.326;2023-05-16T00:37:16;8.55;;;1.05;;
56363;SDS011;42261;52.094;4.326;2023-05-16T00:40:00;3.95;;;0.90;;
56363;SDS011;42261;52.094;4.326;2023-05-16T00:42:44;5.93;;;1.55;;
56363;SDS011;42261;52.094;4.326;2023-05-16T00:45:29;5.60;;;0.80;;
56363;SDS011;42261;52.094;4.326;2023-05-16T00:48:14;6.57;;;0.88;;
56363;SDS011;42261;52.094;4.326;2023-05-16T00:50:58;4.75;;;1.00;;
56363;SDS011;42261;52.094;4.326;2023-05-16T00:53:43;3.80;;;0.93;;
56363;SDS011;42261;52.094;4.326;2023-05-16T00:56:27;7.55;;;1.00;;
56363;SDS011;42261;52.094;4.326;2023-05-16T00:59:11;6.15;;;0.75;;
56363;SDS011;42261;52.094;4.326;2023-05-16T01:01:55;3.33;;;0.60;;
56363;SDS011;42261;52.094;4.326;2023-05-16T01:04:40;6.47;;;1.42;;
56363;SDS011;42261;52.094;4.326;2023-05-16T01:07:24;6.18;;;0.90;;
56363;SDS011;42261;52.094;4.326;2023-05-16T01:10:08;6.43;;;1.33;;
56363;SDS011;42261;52.094;4.326;2023-05-16T01:15:46;4.47;;;0.80;;
56363;SDS011;42261;52.094;4.326;2023-05-16T01:18:38;5.32;;;1.33;;
56363;SDS011;42261;52.094;4.326;2023-05-16T01:24:42;2.35;;;0.85;;
56363;SDS011;42261;52.094;4.326;2023-05-16T01:27:26;7.43;;;1.33;;
56363;SDS011;42261;52.094;4.326;2023-05-16T01:30:13;6.25;;;0.82;;
56363;SDS011;42261;52.094;4.326;2023-05-16T01:32:59;5.28;;;1.33;;
56363;SDS011;42261;52.094;4.326;2023-05-16T01:38:50;6.28;;;0.90;;
56363;SDS011;42261;52.094;4.326;2023-05-16T01:44:31;4.13;;;0.77;;
56363;SDS011;42261;52.094;4.326;2023-05-16T01:47:16;3.28;;;0.85;;
56363;SDS011;42261;52.094;4.326;2023-05-16T01:52:51;8.05;;;1.00;;
56363;SDS011;42261;52.094;4.326;2023-05-16T01:55:44;5.50;;;0.90;;
56363;SDS011;42261;52.094;4.326;2023-05-16T01:58:31;5.95;;;0.90;;
56363;SDS011;42261;52.094;4.326;2023-05-16T02:01:15;4.55;;;1.10;;
56363;SDS011;42261;52.094;4.326;2023-05-16T02:03:59;6.13;;;1.08;;
56363;SDS011;42261;52.094;4.326;2023-05-16T02:06:43;5.45;;;1.10;;
56363;SDS011;42261;52.094;4.326;2023-05-16T02:09:28;3.50;;;0.65;;
56363;SDS011;42261;52.094;4.326;2023-05-16T02:12:12;3.28;;;1.15;;
56363;SDS011;42261;52.094;4.326;2023-05-16T02:14:55;6.03;;;1.02;;
56363;SDS011;42261;52.094;4.326;2023-05-16T02:17:40;8.90;;;1.55;;
56363;SDS011;42261;52.094;4.326;2023-05-16T02:20:24;6.72;;;1.17;;
56363;SDS011;42261;52.094;4.326;2023-05-16T02:23:08;6.05;;;1.00;;
56363;SDS011;42261;52.094;4.326;2023-05-16T02:25:52;9.85;;;1.00;;
56363;SDS011;42261;52.094;4.326;2023-05-16T02:28:36;5.45;;;0.90;;
56363;SDS011;42261;52.094;4.326;2023-05-16T02:31:29;7.25;;;0.85;;
56363;SDS011;42261;52.094;4.326;2023-05-16T02:34:15;5.43;;;2.13;;
56363;SDS011;42261;52.094;4.326;2023-05-16T02:36:59;6.97;;;0.80;;
56363;SDS011;42261;52.094;4.326;2023-05-16T02:39:43;1.92;;;0.80;;
56363;SDS011;42261;52.094;4.326;2023-05-16T02:42:27;10.25;;;1.85;;
56363;SDS011;42261;52.094;4.326;2023-05-16T02:45:12;7.63;;;0.95;;
56363;SDS011;42261;52.094;4.326;2023-05-16T02:47:56;1.38;;;0.63;;
56363;SDS011;42261;52.094;4.326;2023-05-16T02:50:40;3.33;;;0.60;;
56363;SDS011;42261;52.094;4.326;2023-05-16T02:53:25;7.32;;;1.55;;
56363;SDS011;42261;52.094;4.326;2023-05-16T02:56:09;3.65;;;0.80;;
56363;SDS011;42261;52.094;4.326;2023-05-16T02:58:54;7.10;;;0.65;;
56363;SDS011;42261;52.094;4.326;2023-05-16T03:01:39;3.92;;;1.25;;
56363;SDS011;42261;52.094;4.326;2023-05-16T03:04:23;16.52;;;1.08;;
56363;SDS011;42261;52.094;4.326;2023-05-16T03:07:08;5.97;;;0.95;;
56363;SDS011;42261;52.094;4.326;2023-05-16T03:09:52;5.30;;;0.77;;
56363;SDS011;42261;52.094;4.326;2023-05-16T03:12:36;6.93;;;0.75;;
56363;SDS011;42261;52.094;4.326;2023-05-16T03:15:20;6.22;;;1.08;;
56363;SDS011;42261;52.094;4.326;2023-05-16T03:18:05;2.70;;;0.50;;
56363;SDS011;42261;52.094;4.326;2023-05-16T03:20:50;6.90;;;0.70;;
56363;SDS011;42261;52.094;4.326;2023-05-16T03:23:35;5.78;;;1.63;;
56363;SDS011;42261;52.094;4.326;2023-05-16T03:26:19;8.90;;;0.93;;
56363;SDS011;42261;52.094;4.326;2023-05-16T03:29:05;5.93;;;0.75;;
56363;SDS011;42261;52.094;4.326;2023-05-16T03:31:49;4.07;;;1.00;;
56363;SDS011;42261;52.094;4.326;2023-05-16T03:34:33;4.88;;;0.80;;
56363;SDS011;42261;52.094;4.326;2023-05-16T03:37:17;4.55;;;0.77;;
56363;SDS011;42261;52.094;4.326;2023-05-16T03:40:01;6.97;;;0.98;;
56363;SDS011;42261;52.094;4.326;2023-05-16T03:42:50;5.72;;;1.00;;
56363;SDS011;42261;52.094;4.326;2023-05-16T03:45:34;6.28;;;1.08;;
56363;SDS011;42261;52.094;4.326;2023-05-16T03:48:20;4.25;;;0.70;;
56363;SDS011;42261;52.094;4.326;2023-05-16T03:51:04;8.68;;;1.25;;
56363;SDS011;42261;52.094;4.326;2023-05-16T03:53:48;4.20;;;0.73;;
56363;SDS011;42261;52.094;4.326;2023-05-16T03:56:32;5.90;;;0.80;;
56363;SDS011;42261;52.094;4.326;2023-05-16T03:59:16;5.25;;;1.08;;
56363;SDS011;42261;52.094;4.326;2023-05-16T04:02:00;4.30;;;0.77;;
56363;SDS011;42261;52.094;4.326;2023-05-16T04:04:44;7.10;;;1.00;;
56363;SDS011;42261;52.094;4.326;2023-05-16T04:07:29;4.10;;;0.77;;
56363;SDS011;42261;52.094;4.326;2023-05-16T04:10:13;2.13;;;0.77;;
56363;SDS011;42261;52.094;4.326;2023-05-16T04:12:57;4.15;;;0.85;;
56363;SDS011;42261;52.094;4.326;2023-05-16T04:15:41;6.85;;;0.80;;
56363;SDS011;42261;52.094;4.326;2023-05-16T04:18:26;7.40;;;0.60;;
56363;SDS011;42261;52.094;4.326;2023-05-16T04:21:10;4.43;;;0.60;;
56363;SDS011;42261;52.094;4.326;2023-05-16T04:23:58;4.68;;;0.60;;
56363;SDS011;42261;52.094;4.326;2023-05-16T04:26:42;3.72;;;0.63;;
56363;SDS011;42261;52.094;4.326;2023-05-16T04:29:26;2.10;;;0.60;;
56363;SDS011;42261;52.094;4.326;2023-05-16T04:32:10;4.68;;;0.70;;
56363;SDS011;42261;52.094;4.326;2023-05-16T04:34:55;8.65;;;1.00;;
56363;SDS011;42261;52.094;4.326;2023-05-16T04:37:39;5.30;;;0.80;;
56363;SDS011;42261;52.094;4.326;2023-05-16T04:40:23;3.00;;;0.50;;
56363;SDS011;42261;52.094;4.326;2023-05-16T04:43:08;3.30;;;0.80;;
56363;SDS011;42261;52.094;4.326;2023-05-16T04:45:52;5.60;;;0.63;;
56363;SDS011;42261;52.094;4.326;2023-05-16T04:48:41;5.00;;;0.70;;
56363;SDS011;42261;52.094;4.326;2023-05-16T04:51:25;7.50;;;1.17;;
56363;SDS011;42261;52.094;4.326;2023-05-16T04:54:09;3.72;;;0.68;;
56363;SDS011;42261;52.094;4.326;2023-05-16T04:56:53;5.40;;;0.60;;
56363;SDS011;42261;52.094;4.326;2023-05-16T04:59:37;3.03;;;0.60;;
56363;SDS011;42261;52.094;4.326;2023-05-16T05:02:21;4.53;;;0.57;;
56363;SDS011;42261;52.094;4.326;2023-05-16T05:05:05;4.22;;;0.70;;
56363;SDS011;42261;52.094;4.326;2023-05-16T05:07:49;1.92;;;0.60;;
56363;SDS011;42261;52.094;4.326;2023-05-16T05:10:34;5.72;;;0.95;;
56363;SDS011;42261;52.094;4.326;2023-05-16T05:13:18;5.60;;;1.00;;
56363;SDS011;42261;52.094;4.326;2023-05-16T05:16:02;7.63;;;0.60;;
56363;SDS011;42261;52.094;4.326;2023-05-16T05:18:47;4.78;;;0.60;;
56363;SDS011;42261;52.094;4.326;2023-05-16T05:21:32;1.83;;;0.60;;
56363;SDS011;42261;52.094;4.326;2023-05-16T05:24:16;3.05;;;0.68;;
56363;SDS011;42261;52.094;4.326;2023-05-16T05:27:00;2.92;;;0.60;;
56363;SDS011;42261;52.094;4.326;2023-05-16T05:29:45;3.75;;;0.43;;
56363;SDS011;42261;52.094;4.326;2023-05-16T05:32:29;3.13;;;0.68;;
56363;SDS011;42261;52.094;4.326;2023-05-16T05:35:14;3.70;;;0.70;;
56363;SDS011;42261;52.094;4.326;2023-05-16T05:37:58;3.28;;;0.73;;
56363;SDS011;42261;52.094;4.326;2023-05-16T05:40:42;5.03;;;0.70;;
56363;SDS011;42261;52.094;4.326;2023-05-16T05:43:26;3.67;;;0.70;;
56363;SDS011;42261;52.094;4.326;2023-05-16T05:46:10;2.97;;;0.73;;
56363;SDS011;42261;52.094;4.326;2023-05-16T05:48:54;3.85;;;0.50;;
56363;SDS011;42261;52.094;4.326;2023-05-16T05:51:39;4.03;;;0.60;;
56363;SDS011;42261;52.094;4.326;2023-05-16T05:54:23;3.42;;;0.68;;
56363;SDS011;42261;52.094;4.326;2023-05-16T05:57:07;7.15;;;0.60;;
56363;SDS011;42261;52.094;4.326;2023-05-16T05:59:51;3.40;;;0.50;;
56363;SDS011;42261;52.094;4.326;2023-05-16T06:02:35;3.30;;;0.60;;
56363;SDS011;42261;52.094;4.326;2023-05-16T06:05:19;3.60;;;0.57;;
56363;SDS011;42261;52.094;4.326;2023-05-16T06:08:05;2.63;;;0.90;;
56363;SDS011;42261;52.094;4.326;2023-05-16T06:10:50;2.40;;;0.47;;
56363;SDS011;42261;52.094;4.326;2023-05-16T06:13:35;4.20;;;0.90;;
56363;SDS011;42261;52.094;4.326;2023-05-16T06:16:23;2.70;;;0.63;;
56363;SDS011;42261;52.094;4.326;2023-05-16T06:19:07;5.30;;;0.60;;
56363;SDS011;42261;52.094;4.326;2023-05-16T06:21:51;4.57;;;0.50;;
56363;SDS011;42261;52.094;4.326;2023-05-16T06:24:35;3.40;;;0.50;;
56363;SDS011;42261;52.094;4.326;2023-05-16T06:27:18;2.22;;;0.50;;
56363;SDS011;42261;52.094;4.326;2023-05-16T06:30:03;5.13;;;0.68;;
56363;SDS011;42261;52.094;4.326;2023-05-16T06:32:48;2.00;;;0.47;;
56363;SDS011;42261;52.094;4.326;2023-05-16T06:35:33;4.97;;;0.73;;
56363;SDS011;42261;52.094;4.326;2023-05-16T06:38:17;3.70;;;0.50;;
56363;SDS011;42261;52.094;4.326;2023-05-16T06:41:02;4.78;;;0.50;;
56363;SDS011;42261;52.094;4.326;2023-05-16T06:43:46;4.22;;;1.05;;
56363;SDS011;42261;52.094;4.326;2023-05-16T06:46:31;3.30;;;0.75;;
56363;SDS011;42261;52.094;4.326;2023-05-16T06:49:15;1.45;;;0.40;;
56363;SDS011;42261;52.094;4.326;2023-05-16T06:51:59;5.78;;;0.50;;
56363;SDS011;42261;52.094;4.326;2023-05-16T06:54:43;3.85;;;0.60;;
56363;SDS011;42261;52.094;4.326;2023-05-16T06:57:27;3.65;;;0.50;;
56363;SDS011;42261;52.094;4.326;2023-05-16T07:00:12;0.82;;;0.40;;
56363;SDS011;42261;52.094;4.326;2023-05-16T07:02:56;1.58;;;0.50;;
56363;SDS011;42261;52.094;4.326;2023-05-16T07:05:41;4.20;;;1.38;;
56363;SDS011;42261;52.094;4.326;2023-05-16T07:08:25;2.80;;;0.50;;
56363;SDS011;42261;52.094;4.326;2023-05-16T07:11:09;3.92;;;0.50;;
56363;SDS011;42261;52.094;4.326;2023-05-16T07:13:54;2.70;;;0.60;;
56363;SDS011;42261;52.094;4.326;2023-05-16T07:16:38;2.67;;;0.52;;
56363;SDS011;42261;52.094;4.326;2023-05-16T07:19:22;1.85;;;0.35;;
56363;SDS011;42261;52.094;4.326;2023-05-16T07:22:07;4.22;;;0.88;;
56363;SDS011;42261;52.094;4.326;2023-05-16T07:24:51;3.35;;;0.50;;
56363;SDS011;42261;52.094;4.326;2023-05-16T07:27:40;4.97;;;0.70;;
56363;SDS011;42261;52.094;4.326;2023-05-16T07:30:27;4.07;;;0.55;;
56363;SDS011;42261;52.094;4.326;2023-05-16T07:33:12;3.35;;;0.52;;
56363;SDS011;42261;52.094;4.326;2023-05-16T07:35:56;5.00;;;0.70;;
56363;SDS011;42261;52.094;4.326;2023-05-16T07:38:40;7.05;;;1.00;;
56363;SDS011;42261;52.094;4.326;2023-05-16T07:41:24;3.17;;;0.80;;
56363;SDS011;42261;52.094;4.326;2023-05-16T07:44:10;4.38;;;0.43;;
56363;SDS011;42261;52.094;4.326;2023-05-16T07:46:54;2.90;;;0.38;;
56363;SDS011;42261;52.094;4.326;2023-05-16T07:49:38;4.47;;;0.50;;
56363;SDS011;42261;52.094;4.326;2023-05-16T07:52:22;1.95;;;0.57;;
56363;SDS011;42261;52.094;4.326;2023-05-16T07:55:06;1.95;;;0.60;;
56363;SDS011;42261;52.094;4.326;2023-05-16T07:57:51;2.60;;;0.55;;
56363;SDS011;42261;52.094;4.326;2023-05-16T08:00:35;5.60;;;0.60;;
56363;SDS011;42261;52.094;4.326;2023-05-16T08:03:19;1.15;;;0.22;;
56363;SDS011;42261;52.094;4.326;2023-05-16T08:06:03;2.53;;;0.50;;
56363;SDS011;42261;52.094;4.326;2023-05-16T08:08:47;4.25;;;0.70;;
56363;SDS011;42261;52.094;4.326;2023-05-16T08:11:31;6.85;;;0.70;;
56363;SDS011;42261;52.094;4.326;2023-05-16T08:14:15;2.95;;;0.40;;
56363;SDS011;42261;52.094;4.326;2023-05-16T08:16:59;5.38;;;0.73;;
56363;SDS011;42261;52.094;4.326;2023-05-16T08:19:43;4.00;;;0.60;;
56363;SDS011;42261;52.094;4.326;2023-05-16T08:22:27;2.35;;;0.57;;
56363;SDS011;42261;52.094;4.326;2023-05-16T08:25:11;5.35;;;0.35;;
56363;SDS011;42261;52.094;4.326;2023-05-16T08:27:55;4.00;;;0.80;;
56363;SDS011;42261;52.094;4.326;2023-05-16T08:30:40;3.75;;;0.55;;
56363;SDS011;42261;52.094;4.326;2023-05-16T08:33:24;5.53;;;0.50;;
56363;SDS011;42261;52.094;4.326;2023-05-16T08:36:09;6.47;;;0.60;;
56363;SDS011;42261;52.094;4.326;2023-05-16T08:38:53;3.13;;;0.40;;
56363;SDS011;42261;52.094;4.326;2023-05-16T08:41:37;7.18;;;0.80;;
56363;SDS011;42261;52.094;4.326;2023-05-16T08:44:21;5.93;;;0.60;;
56363;SDS011;42261;52.094;4.326;2023-05-16T08:47:11;4.15;;;0.50;;
56363;SDS011;42261;52.094;4.326;2023-05-16T08:49:56;1.48;;;0.30;;
56363;SDS011;42261;52.094;4.326;2023-05-16T08:52:41;6.57;;;0.80;;
56363;SDS011;42261;52.094;4.326;2023-05-16T08:55:26;3.25;;;0.50;;
56363;SDS011;42261;52.094;4.326;2023-05-16T08:58:11;6.22;;;1.15;;
56363;SDS011;42261;52.094;4.326;2023-05-16T09:00:55;5.35;;;0.70;;
56363;SDS011;42261;52.094;4.326;2023-05-16T09:03:39;3.47;;;0.45;;
56363;SDS011;42261;52.094;4.326;2023-05-16T09:06:23;2.17;;;0.50;;
56363;SDS011;42261;52.094;4.326;2023-05-16T09:09:10;2.83;;;0.55;;
56363;SDS011;42261;52.094;4.326;2023-05-16T09:11:55;2.42;;;0.93;;
56363;SDS011;42261;52.094;4.326;2023-05-16T09:14:40;1.67;;;0.35;;
56363;SDS011;42261;52.094;4.326;2023-05-16T09:17:24;4.85;;;0.55;;
56363;SDS011;42261;52.094;4.326;2023-05-16T09:20:13;1.73;;;0.70;;
56363;SDS011;42261;52.094;4.326;2023-05-16T09:22:58;2.35;;;0.45;;
56363;SDS011;42261;52.094;4.326;2023-05-16T09:25:42;3.58;;;0.50;;
56363;SDS011;42261;52.094;4.326;2023-05-16T09:28:27;5.80;;;0.60;;
56363;SDS011;42261;52.094;4.326;2023-05-16T09:31:44;2.63;;;0.70;;
56363;SDS011;42261;52.094;4.326;2023-05-16T09:34:22;5.63;;;0.52;;
56363;SDS011;42261;52.094;4.326;2023-05-16T09:37:08;2.22;;;0.68;;
56363;SDS011;42261;52.094;4.326;2023-05-16T09:39:53;1.40;;;0.50;;
56363;SDS011;42261;52.094;4.326;2023-05-16T09:42:40;4.95;;;0.82;;
56363;SDS011;42261;52.094;4.326;2023-05-16T09:45:26;2.40;;;1.02;;
56363;SDS011;42261;52.094;4.326;2023-05-16T09:48:10;2.38;;;0.57;;
56363;SDS011;42261;52.094;4.326;2023-05-16T09:50:57;5.60;;;0.75;;
56363;SDS011;42261;52.094;4.326;2023-05-16T09:53:46;2.42;;;0.43;;
56363;SDS011;42261;52.094;4.326;2023-05-16T09:56:30;3.33;;;0.50;;
56363;SDS011;42261;52.094;4.326;2023-05-16T09:59:14;3.03;;;0.43;;
56363;SDS011;42261;52.094;4.326;2023-05-16T10:01:59;3.47;;;0.60;;
56363;SDS011;42261;52.094;4.326;2023-05-16T10:04:43;6.97;;;0.65;;
56363;SDS011;42261;52.094;4.326;2023-05-16T10:07:28;2.45;;;0.60;;
56363;SDS011;42261;52.094;4.326;2023-05-16T10:10:15;2.10;;;0.40;;
56363;SDS011;42261;52.094;4.326;2023-05-16T10:13:00;4.85;;;1.13;;
56363;SDS011;42261;52.094;4.326;2023-05-16T10:15:46;4.07;;;1.27;;
56363;SDS011;42261;52.094;4.326;2023-05-16T10:18:32;2.65;;;0.40;;
56363;SDS011;42261;52.094;4.326;2023-05-16T10:21:18;2.72;;;0.50;;
56363;SDS011;42261;52.094;4.326;2023-05-16T10:24:02;2.33;;;0.40;;
56363;SDS011;42261;52.094;4.326;2023-05-16T10:26:50;2.22;;;0.60;;
56363;SDS011;42261;52.094;4.326;2023-05-16T10:29:36;4.88;;;0.68;;
56363;SDS011;42261;52.094;4.326;2023-05-16T10:32:21;2.75;;;0.40;;
56363;SDS011;42261;52.094;4.326;2023-05-16T10:35:06;2.88;;;0.63;;
56363;SDS011;42261;52.094;4.326;2023-05-16T10:37:50;3.30;;;0.60;;
56363;SDS011;42261;52.094;4.326;2023-05-16T10:40:35;3.50;;;0.60;;
56363;SDS011;42261;52.094;4.326;2023-05-16T10:43:27;2.70;;;0.40;;
56363;SDS011;42261;52.094;4.326;2023-05-16T10:46:13;4.55;;;0.90;;
56363;SDS011;42261;52.094;4.326;2023-05-16T10:48:57;1.90;;;1.55;;
56363;SDS011;42261;52.094;4.326;2023-05-16T10:51:41;2.83;;;0.60;;
56363;SDS011;42261;52.094;4.326;2023-05-16T10:54:32;2.33;;;0.50;;
56363;SDS011;42261;52.094;4.326;2023-05-16T10:57:21;4.35;;;0.60;;
56363;SDS011;42261;52.094;4.326;2023-05-16T11:00:06;1.17;;;0.40;;
56363;SDS011;42261;52.094;4.326;2023-05-16T11:02:50;3.80;;;0.52;;
56363;SDS011;42261;52.094;4.326;2023-05-16T11:05:34;3.80;;;0.50;;
56363;SDS011;42261;52.094;4.326;2023-05-16T11:08:19;1.77;;;0.65;;
56363;SDS011;42261;52.094;4.326;2023-05-16T11:14:06;1.10;;;0.55;;
56363;SDS011;42261;52.094;4.326;2023-05-16T11:17:10;3.83;;;0.70;;
56363;SDS011;42261;52.094;4.326;2023-05-16T11:19:55;1.58;;;0.70;;
56363;SDS011;42261;52.094;4.326;2023-05-16T11:22:42;3.15;;;0.57;;
56363;SDS011;42261;52.094;4.326;2023-05-16T11:25:34;5.57;;;0.95;;
56363;SDS011;42261;52.094;4.326;2023-05-16T11:28:18;2.88;;;0.50;;
56363;SDS011;42261;52.094;4.326;2023-05-16T11:31:03;1.20;;;0.35;;
56363;SDS011;42261;52.094;4.326;2023-05-16T11:33:49;2.65;;;0.50;;
56363;SDS011;42261;52.094;4.326;2023-05-16T11:36:33;4.43;;;0.50;;
56363;SDS011;42261;52.094;4.326;2023-05-16T11:39:18;0.90;;;0.40;;
56363;SDS011;42261;52.094;4.326;2023-05-16T11:42:02;3.03;;;0.60;;
56363;SDS011;42261;52.094;4.326;2023-05-16T11:45:02;3.17;;;0.55;;
56363;SDS011;42261;52.094;4.326;2023-05-16T11:47:48;1.40;;;0.38;;
56363;SDS011;42261;52.094;4.326;2023-05-16T11:50:33;2.08;;;0.50;;
56363;SDS011;42261;52.094;4.326;2023-05-16T11:53:17;2.78;;;0.70;;
56363;SDS011;42261;52.094;4.326;2023-05-16T11:56:01;2.88;;;0.40;;
56363;SDS011;42261;52.094;4.326;2023-05-16T11:58:46;4.07;;;0.65;;
56363;SDS011;42261;52.094;4.326;2023-05-16T12:01:32;3.47;;;0.45;;
56363;SDS011;42261;52.094;4.326;2023-05-16T12:04:16;2.65;;;0.30;;
56363;SDS011;42261;52.094;4.326;2023-05-16T12:07:00;3.58;;;1.25;;
56363;SDS011;42261;52.094;4.326;2023-05-16T12:09:55;2.15;;;0.40;;
56363;SDS011;42261;52.094;4.326;2023-05-16T12:12:46;3.75;;;0.30;;
56363;SDS011;42261;52.094;4.326;2023-05-16T12:15:31;2.13;;;0.43;;
56363;SDS011;42261;52.094;4.326;2023-05-16T12:18:16;1.85;;;0.40;;
56363;SDS011;42261;52.094;4.326;2023-05-16T12:21:01;4.05;;;0.50;;
56363;SDS011;42261;52.094;4.326;2023-05-16T12:23:45;2.30;;;0.50;;
56363;SDS011;42261;52.094;4.326;2023-05-16T12:26:29;3.83;;;0.50;;
56363;SDS011;42261;52.094;4.326;2023-05-16T12:29:14;1.10;;;0.40;;
56363;SDS011;42261;52.094;4.326;2023-05-16T12:31:58;3.92;;;0.70;;
56363;SDS011;42261;52.094;4.326;2023-05-16T12:34:47;5.10;;;0.60;;
56363;SDS011;42261;52.094;4.326;2023-05-16T12:37:32;2.30;;;0.30;;
56363;SDS011;42261;52.094;4.326;2023-05-16T12:40:16;8.98;;;0.50;;
56363;SDS011;42261;52.094;4.326;2023-05-16T12:43:01;1.25;;;0.38;;
56363;SDS011;42261;52.094;4.326;2023-05-16T12:45:52;1.33;;;0.35;;
56363;SDS011;42261;52.094;4.326;2023-05-16T12:48:36;2.17;;;0.30;;
56363;SDS011;42261;52.094;4.326;2023-05-16T12:51:22;4.72;;;0.30;;
56363;SDS011;42261;52.094;4.326;2023-05-16T12:54:10;2.22;;;0.30;;
56363;SDS011;42261;52.094;4.326;2023-05-16T12:56:54;1.57;;;0.40;;
56363;SDS011;42261;52.094;4.326;2023-05-16T12:59:38;2.70;;;0.52;;
56363;SDS011;42261;52.094;4.326;2023-05-16T13:02:23;2.03;;;0.40;;
56363;SDS011;42261;52.094;4.326;2023-05-16T13:05:07;1.58;;;0.32;;
56363;SDS011;42261;52.094;4.326;2023-05-16T13:07:51;2.75;;;0.52;;
56363;SDS011;42261;52.094;4.326;2023-05-16T13:10:35;2.47;;;0.45;;
56363;SDS011;42261;52.094;4.326;2023-05-16T13:13:19;7.47;;;0.73;;
56363;SDS011;42261;52.094;4.326;2023-05-16T13:16:02;4.28;;;0.60;;
56363;SDS011;42261;52.094;4.326;2023-05-16T13:18:46;2.83;;;0.40;;
56363;SDS011;42261;52.094;4.326;2023-05-16T13:21:30;3.22;;;0.70;;
56363;SDS011;42261;52.094;4.326;2023-05-16T13:24:15;2.70;;;0.38;;
56363;SDS011;42261;52.094;4.326;2023-05-16T13:26:59;3.28;;;0.73;;
56363;SDS011;42261;52.094;4.326;2023-05-16T13:29:45;0.63;;;0.40;;
56363;SDS011;42261;52.094;4.326;2023-05-16T13:35:16;3.43;;;0.47;;
56363;SDS011;42261;52.094;4.326;2023-05-16T13:38:01;1.05;;;0.40;;
56363;SDS011;42261;52.094;4.326;2023-05-16T13:40:46;1.58;;;0.32;;
56363;SDS011;42261;52.094;4.326;2023-05-16T13:43:30;3.60;;;0.60;;
56363;SDS011;42261;52.094;4.326;2023-05-16T13:46:14;1.05;;;0.50;;
56363;SDS011;42261;52.094;4.326;2023-05-16T13:48:59;3.60;;;0.95;;
56363;SDS011;42261;52.094;4.326;2023-05-16T13:51:43;1.15;;;0.63;;
56363;SDS011;42261;52.094;4.326;2023-05-16T13:54:29;1.08;;;0.25;;
56363;SDS011;42261;52.094;4.326;2023-05-16T13:57:14;1.60;;;0.65;;
56363;SDS011;42261;52.094;4.326;2023-05-16T13:59:58;3.55;;;0.40;;
56363;SDS011;42261;52.094;4.326;2023-05-16T14:02:42;2.58;;;0.40;;
56363;SDS011;42261;52.094;4.326;2023-05-16T14:05:26;2.60;;;0.50;;
56363;SDS011;42261;52.094;4.326;2023-05-16T14:08:11;0.60;;;0.30;;
56363;SDS011;42261;52.094;4.326;2023-05-16T14:10:56;2.50;;;0.65;;
56363;SDS011;42261;52.094;4.326;2023-05-16T14:13:40;1.67;;;0.40;;
56363;SDS011;42261;52.094;4.326;2023-05-16T14:16:24;5.00;;;0.52;;
56363;SDS011;42261;52.094;4.326;2023-05-16T14:19:08;1.08;;;0.50;;
56363;SDS011;42261;52.094;4.326;2023-05-16T14:21:52;2.75;;;0.52;;
56363;SDS011;42261;52.094;4.326;2023-05-16T14:24:36;2.40;;;0.55;;
56363;SDS011;42261;52.094;4.326;2023-05-16T14:27:20;1.80;;;0.60;;
56363;SDS011;42261;52.094;4.326;2023-05-16T14:30:04;2.15;;;0.40;;
56363;SDS011;42261;52.094;4.326;2023-05-16T14:32:49;4.43;;;0.60;;
56363;SDS011;42261;52.094;4.326;2023-05-16T14:35:33;4.25;;;0.70;;
56363;SDS011;42261;52.094;4.326;2023-05-16T14:38:21;2.05;;;0.70;;
56363;SDS011;42261;52.094;4.326;2023-05-16T14:41:05;2.67;;;0.88;;
56363;SDS011;42261;52.094;4.326;2023-05-16T14:43:49;2.72;;;0.73;;
56363;SDS011;42261;52.094;4.326;2023-05-16T14:46:33;6.40;;;1.73;;
56363;SDS011;42261;52.094;4.326;2023-05-16T14:49:17;3.42;;;1.30;;
56363;SDS011;42261;52.094;4.326;2023-05-16T14:52:01;4.75;;;1.17;;
56363;SDS011;42261;52.094;4.326;2023-05-16T14:54:45;7.47;;;1.48;;
56363;SDS011;42261;52.094;4.326;2023-05-16T14:57:31;3.20;;;1.40;;
56363;SDS011;42261;52.094;4.326;2023-05-16T15:00:15;7.43;;;1.52;;
56363;SDS011;42261;52.094;4.326;2023-05-16T15:03:00;7.13;;;1.67;;
56363;SDS011;42261;52.094;4.326;2023-05-16T15:05:45;5.38;;;1.83;;
56363;SDS011;42261;52.094;4.326;2023-05-16T15:08:29;7.20;;;2.00;;
56363;SDS011;42261;52.094;4.326;2023-05-16T15:11:13;10.13;;;1.67;;
56363;SDS011;42261;52.094;4.326;2023-05-16T15:13:57;7.00;;;1.88;;
56363;SDS011;42261;52.094;4.326;2023-05-16T15:16:42;5.85;;;2.20;;
56363;SDS011;42261;52.094;4.326;2023-05-16T15:19:26;11.00;;;3.83;;
56363;SDS011;42261;52.094;4.326;2023-05-16T15:22:10;5.13;;;2.10;;
56363;SDS011;42261;52.094;4.326;2023-05-16T15:24:55;4.85;;;1.70;;
56363;SDS011;42261;52.094;4.326;2023-05-16T15:27:39;6.78;;;2.35;;
56363;SDS011;42261;52.094;4.326;2023-05-16T15:30:23;4.40;;;1.48;;
56363;SDS011;42261;52.094;4.326;2023-05-16T15:33:08;5.47;;;1.23;;
56363;SDS011;42261;52.094;4.326;2023-05-16T15:35:52;6.20;;;1.40;;
56363;SDS011;42261;52.094;4.326;2023-05-16T15:38:36;4.88;;;1.10;;
56363;SDS011;42261;52.094;4.326;2023-05-16T15:41:19;3.88;;;1.08;;
56363;SDS011;42261;52.094;4.326;2023-05-16T15:44:04;10.55;;;1.23;;
56363;SDS011;42261;52.094;4.326;2023-05-16T15:46:48;7.93;;;0.80;;
56363;SDS011;42261;52.094;4.326;2023-05-16T15:49:32;8.57;;;1.00;;
56363;SDS011;42261;52.094;4.326;2023-05-16T15:52:16;5.93;;;1.42;;
56363;SDS011;42261;52.094;4.326;2023-05-16T15:55:01;4.90;;;1.63;;
56363;SDS011;42261;52.094;4.326;2023-05-16T15:57:46;4.95;;;1.20;;
56363;SDS011;42261;52.094;4.326;2023-05-16T16:00:30;10.60;;;1.48;;
56363;SDS011;42261;52.094;4.326;2023-05-16T16:03:14;7.20;;;1.45;;
56363;SDS011;42261;52.094;4.326;2023-05-16T16:05:58;4.88;;;1.50;;
56363;SDS011;42261;52.094;4.326;2023-05-16T16:08:42;4.63;;;1.15;;
56363;SDS011;42261;52.094;4.326;2023-05-16T16:11:26;11.63;;;1.50;;
56363;SDS011;42261;52.094;4.326;2023-05-16T16:14:10;8.27;;;1.38;;
56363;SDS011;42261;52.094;4.326;2023-05-16T16:16:54;8.43;;;1.20;;
56363;SDS011;42261;52.094;4.326;2023-05-16T16:19:38;8.38;;;1.77;;
56363;SDS011;42261;52.094;4.326;2023-05-16T16:22:22;9.55;;;1.60;;
56363;SDS011;42261;52.094;4.326;2023-05-16T16:25:07;3.88;;;1.38;;
56363;SDS011;42261;52.094;4.326;2023-05-16T16:27:51;6.00;;;0.98;;
56363;SDS011;42261;52.094;4.326;2023-05-16T16:30:35;7.72;;;1.70;;
56363;SDS011;42261;52.094;4.326;2023-05-16T16:33:20;4.40;;;1.40;;
56363;SDS011;42261;52.094;4.326;2023-05-16T16:36:04;7.80;;;1.50;;
56363;SDS011;42261;52.094;4.326;2023-05-16T16:38:48;6.28;;;1.25;;
56363;SDS011;42261;52.094;4.326;2023-05-16T16:41:32;2.42;;;0.90;;
56363;SDS011;42261;52.094;4.326;2023-05-16T16:44:18;6.40;;;1.58;;
56363;SDS011;42261;52.094;4.326;2023-05-16T16:47:02;7.60;;;1.48;;
56363;SDS011;42261;52.094;4.326;2023-05-16T16:49:46;6.15;;;1.27;;
56363;SDS011;42261;52.094;4.326;2023-05-16T16:52:30;7.65;;;1.20;;
56363;SDS011;42261;52.094;4.326;2023-05-16T16:55:14;6.90;;;1.30;;